sensor_id;sensor_type;location;lat;lon;timestamp;P1;durP1;ratioP1;P2;durP2;ratioP2
3149;SDS011;32503;47.748;8.960;2022-08-19T00:00:38;5.23;;;5.03;;
3149;SDS011;32503;47.748;8.960;2022-08-19T00:03:05;5.70;;;5.47;;
3149;SDS011;32503;47.748;8.960;2022-08-19T00:05:33;5.17;;;4.97;;
3149;SDS011;32503;47.748;8.960;2022-08-19T00:08:00;5.77;;;5.37;;
3149;SDS011;32503;47.748;8.960;2022-08-19T00:10:28;7.50;;;6.90;;
3149;SDS011;32503;47.748;8.960;2022-08-19T00:12:57;9.23;;;8.43;;
3149;SDS011;32503;47.748;8.960;2022-08-19T00:15:24;7.57;;;6.97;;
3149;SDS011;32503;47.748;8.960;2022-08-19T00:17:52;6.00;;;5.60;;
3149;SDS011;32503;47.748;8.960;2022-08-19T00:20:20;5.70;;;5.40;;
3149;SDS011;32503;47.748;8.960;2022-08-19T00:22:48;5.67;;;5.40;;
3149;SDS011;32503;47.748;8.960;2022-08-19T00:25:15;6.27;;;5.97;;
3149;SDS011;32503;47.748;8.960;2022-08-19T00:27:43;6.60;;;6.23;;
3149;SDS011;32503;47.748;8.960;2022-08-19T00:30:12;5.70;;;5.40;;
3149;SDS011;32503;47.748;8.960;2022-08-19T00:32:39;6.53;;;6.13;;
3149;SDS011;32503;47.748;8.960;2022-08-19T00:35:07;5.33;;;5.13;;
3149;SDS011;32503;47.748;8.960;2022-08-19T00:37:35;6.70;;;6.30;;
3149;SDS011;32503;47.748;8.960;2022-08-19T00:40:04;6.23;;;5.80;;
3149;SDS011;32503;47.748;8.960;2022-08-19T00:42:33;6.00;;;5.70;;
3149;SDS011;32503;47.748;8.960;2022-08-19T00:45:00;5.93;;;5.63;;
3149;SDS011;32503;47.748;8.960;2022-08-19T00:47:30;5.43;;;5.03;;
3149;SDS011;32503;47.748;8.960;2022-08-19T00:49:57;5.30;;;5.07;;
3149;SDS011;32503;47.748;8.960;2022-08-19T00:52:26;6.63;;;6.03;;
3149;SDS011;32503;47.748;8.960;2022-08-19T00:54:55;5.77;;;5.43;;
3149;SDS011;32503;47.748;8.960;2022-08-19T00:57:27;6.53;;;6.23;;
3149;SDS011;32503;47.748;8.960;2022-08-19T00:59:59;5.53;;;5.33;;
3149;SDS011;32503;47.748;8.960;2022-08-19T01:02:31;6.43;;;6.13;;
3149;SDS011;32503;47.748;8.960;2022-08-19T01:04:59;6.80;;;6.40;;
3149;SDS011;32503;47.748;8.960;2022-08-19T01:07:30;5.20;;;4.97;;
3149;SDS011;32503;47.748;8.960;2022-08-19T01:09:59;5.87;;;5.50;;
3149;SDS011;32503;47.748;8.960;2022-08-19T01:12:26;5.73;;;5.53;;
3149;SDS011;32503;47.748;8.960;2022-08-19T01:14:53;7.32;;;6.93;;
3149;SDS011;32503;47.748;8.960;2022-08-19T01:17:21;6.63;;;6.33;;
3149;SDS011;32503;47.748;8.960;2022-08-19T01:19:50;6.40;;;6.10;;
3149;SDS011;32503;47.748;8.960;2022-08-19T01:22:19;6.10;;;5.80;;
3149;SDS011;32503;47.748;8.960;2022-08-19T01:24:56;6.50;;;6.10;;
3149;SDS011;32503;47.748;8.960;2022-08-19T01:27:23;6.30;;;6.00;;
3149;SDS011;32503;47.748;8.960;2022-08-19T01:29:50;5.80;;;5.50;;
3149;SDS011;32503;47.748;8.960;2022-08-19T01:32:17;7.10;;;6.40;;
3149;SDS011;32503;47.748;8.960;2022-08-19T01:34:45;6.60;;;6.20;;
3149;SDS011;32503;47.748;8.960;2022-08-19T01:37:13;7.80;;;7.30;;
3149;SDS011;32503;47.748;8.960;2022-08-19T01:39:43;5.50;;;5.20;;
3149;SDS011;32503;47.748;8.960;2022-08-19T01:42:10;7.17;;;6.67;;
3149;SDS011;32503;47.748;8.960;2022-08-19T01:44:38;7.50;;;6.90;;
3149;SDS011;32503;47.748;8.960;2022-08-19T01:47:07;7.73;;;7.23;;
3149;SDS011;32503;47.748;8.960;2022-08-19T01:49:35;8.33;;;7.77;;
3149;SDS011;32503;47.748;8.960;2022-08-19T01:52:03;6.87;;;6.20;;
3149;SDS011;32503;47.748;8.960;2022-08-19T01:54:32;7.70;;;7.13;;
3149;SDS011;32503;47.748;8.960;2022-08-19T01:57:01;8.03;;;7.50;;
3149;SDS011;32503;47.748;8.960;2022-08-19T01:59:32;6.10;;;5.70;;
3149;SDS011;32503;47.748;8.960;2022-08-19T02:02:01;8.60;;;8.10;;
3149;SDS011;32503;47.748;8.960;2022-08-19T02:04:31;8.60;;;8.00;;
3149;SDS011;32503;47.748;8.960;2022-08-19T02:06:58;7.20;;;6.80;;
3149;SDS011;32503;47.748;8.960;2022-08-19T02:09:26;7.47;;;7.00;;
3149;SDS011;32503;47.748;8.960;2022-08-19T02:11:53;8.40;;;7.80;;
3149;SDS011;32503;47.748;8.960;2022-08-19T02:14:21;9.80;;;8.10;;
3149;SDS011;32503;47.748;8.960;2022-08-19T02:16:48;8.10;;;7.60;;
3149;SDS011;32503;47.748;8.960;2022-08-19T02:19:15;9.03;;;8.43;;
3149;SDS011;32503;47.748;8.960;2022-08-19T02:21:43;7.67;;;7.27;;
3149;SDS011;32503;47.748;8.960;2022-08-19T02:24:10;8.30;;;7.80;;
3149;SDS011;32503;47.748;8.960;2022-08-19T02:26:37;8.40;;;7.80;;
3149;SDS011;32503;47.748;8.960;2022-08-19T02:29:04;8.20;;;7.60;;
3149;SDS011;32503;47.748;8.960;2022-08-19T02:31:33;8.47;;;7.87;;
3149;SDS011;32503;47.748;8.960;2022-08-19T02:34:00;10.37;;;9.50;;
3149;SDS011;32503;47.748;8.960;2022-08-19T02:36:28;11.63;;;10.63;;
3149;SDS011;32503;47.748;8.960;2022-08-19T02:38:56;11.83;;;10.60;;
3149;SDS011;32503;47.748;8.960;2022-08-19T02:41:22;9.70;;;8.80;;
3149;SDS011;32503;47.748;8.960;2022-08-19T02:43:52;10.30;;;9.50;;
3149;SDS011;32503;47.748;8.960;2022-08-19T02:46:20;11.37;;;10.37;;
3149;SDS011;32503;47.748;8.960;2022-08-19T02:48:52;14.20;;;12.80;;
3149;SDS011;32503;47.748;8.960;2022-08-19T02:51:24;12.97;;;11.67;;
3149;SDS011;32503;47.748;8.960;2022-08-19T02:53:54;13.07;;;11.70;;
3149;SDS011;32503;47.748;8.960;2022-08-19T02:56:22;13.30;;;12.00;;
3149;SDS011;32503;47.748;8.960;2022-08-19T02:58:49;13.87;;;12.57;;
3149;SDS011;32503;47.748;8.960;2022-08-19T03:01:20;12.57;;;11.47;;
3149;SDS011;32503;47.748;8.960;2022-08-19T03:03:49;13.77;;;12.37;;
3149;SDS011;32503;47.748;8.960;2022-08-19T03:06:18;12.87;;;11.67;;
3149;SDS011;32503;47.748;8.960;2022-08-19T03:08:46;14.57;;;13.23;;
3149;SDS011;32503;47.748;8.960;2022-08-19T03:11:16;13.43;;;12.10;;
3149;SDS011;32503;47.748;8.960;2022-08-19T03:13:46;14.00;;;12.67;;
3149;SDS011;32503;47.748;8.960;2022-08-19T03:16:14;14.67;;;13.37;;
3149;SDS011;32503;47.748;8.960;2022-08-19T03:18:42;11.77;;;10.60;;
3149;SDS011;32503;47.748;8.960;2022-08-19T03:21:14;13.63;;;12.27;;
3149;SDS011;32503;47.748;8.960;2022-08-19T03:23:43;14.67;;;13.17;;
3149;SDS011;32503;47.748;8.960;2022-08-19T03:26:10;14.40;;;13.00;;
3149;SDS011;32503;47.748;8.960;2022-08-19T03:28:37;14.17;;;12.70;;
3149;SDS011;32503;47.748;8.960;2022-08-19T03:31:05;12.20;;;11.10;;
3149;SDS011;32503;47.748;8.960;2022-08-19T03:33:36;14.10;;;12.80;;
3149;SDS011;32503;47.748;8.960;2022-08-19T03:36:05;13.47;;;12.07;;
3149;SDS011;32503;47.748;8.960;2022-08-19T03:38:36;14.33;;;12.83;;
3149;SDS011;32503;47.748;8.960;2022-08-19T03:41:06;13.20;;;12.00;;
3149;SDS011;32503;47.748;8.960;2022-08-19T03:43:37;12.27;;;11.17;;
3149;SDS011;32503;47.748;8.960;2022-08-19T03:46:06;15.03;;;13.53;;
3149;SDS011;32503;47.748;8.960;2022-08-19T03:48:36;14.60;;;13.20;;
3149;SDS011;32503;47.748;8.960;2022-08-19T03:51:04;15.53;;;14.03;;
3149;SDS011;32503;47.748;8.960;2022-08-19T03:53:33;14.40;;;12.90;;
3149;SDS011;32503;47.748;8.960;2022-08-19T03:56:03;17.00;;;15.30;;
3149;SDS011;32503;47.748;8.960;2022-08-19T03:58:30;14.30;;;12.83;;
3149;SDS011;32503;47.748;8.960;2022-08-19T04:00:57;15.50;;;13.80;;
3149;SDS011;32503;47.748;8.960;2022-08-19T04:03:25;15.97;;;14.37;;
3149;SDS011;32503;47.748;8.960;2022-08-19T04:05:52;13.83;;;12.40;;
3149;SDS011;32503;47.748;8.960;2022-08-19T04:08:20;15.10;;;13.60;;
3149;SDS011;32503;47.748;8.960;2022-08-19T04:10:47;15.10;;;13.57;;
3149;SDS011;32503;47.748;8.960;2022-08-19T04:13:17;15.13;;;13.63;;
3149;SDS011;32503;47.748;8.960;2022-08-19T04:15:45;14.80;;;13.30;;
3149;SDS011;32503;47.748;8.960;2022-08-19T04:18:12;14.23;;;12.87;;
3149;SDS011;32503;47.748;8.960;2022-08-19T04:20:43;15.77;;;14.17;;
3149;SDS011;32503;47.748;8.960;2022-08-19T04:23:13;14.83;;;13.37;;
3149;SDS011;32503;47.748;8.960;2022-08-19T04:25:42;16.10;;;14.47;;
3149;SDS011;32503;47.748;8.960;2022-08-19T04:28:11;15.90;;;14.27;;
3149;SDS011;32503;47.748;8.960;2022-08-19T04:30:41;17.37;;;15.50;;
3149;SDS011;32503;47.748;8.960;2022-08-19T04:33:11;16.17;;;14.57;;
3149;SDS011;32503;47.748;8.960;2022-08-19T04:35:41;15.03;;;13.47;;
3149;SDS011;32503;47.748;8.960;2022-08-19T04:38:10;17.17;;;15.40;;
3149;SDS011;32503;47.748;8.960;2022-08-19T04:40:39;16.43;;;14.33;;
3149;SDS011;32503;47.748;8.960;2022-08-19T04:43:25;14.77;;;13.17;;
3149;SDS011;32503;47.748;8.960;2022-08-19T04:45:54;14.73;;;13.30;;
3149;SDS011;32503;47.748;8.960;2022-08-19T04:48:21;15.77;;;14.00;;
3149;SDS011;32503;47.748;8.960;2022-08-19T04:50:51;16.17;;;14.57;;
3149;SDS011;32503;47.748;8.960;2022-08-19T04:53:22;16.20;;;14.50;;
3149;SDS011;32503;47.748;8.960;2022-08-19T04:55:53;16.27;;;14.57;;
3149;SDS011;32503;47.748;8.960;2022-08-19T04:58:21;16.03;;;14.43;;
3149;SDS011;32503;47.748;8.960;2022-08-19T05:00:48;17.07;;;15.30;;
3149;SDS011;32503;47.748;8.960;2022-08-19T05:03:17;17.20;;;15.40;;
3149;SDS011;32503;47.748;8.960;2022-08-19T05:05:44;16.00;;;14.40;;
3149;SDS011;32503;47.748;8.960;2022-08-19T05:08:13;15.27;;;13.83;;
3149;SDS011;32503;47.748;8.960;2022-08-19T05:10:44;15.67;;;14.07;;
3149;SDS011;32503;47.748;8.960;2022-08-19T05:13:13;16.03;;;13.60;;
3149;SDS011;32503;47.748;8.960;2022-08-19T05:15:41;13.33;;;12.13;;
3149;SDS011;32503;47.748;8.960;2022-08-19T05:18:09;13.30;;;12.07;;
3149;SDS011;32503;47.748;8.960;2022-08-19T05:20:55;13.30;;;12.00;;
3149;SDS011;32503;47.748;8.960;2022-08-19T05:23:39;13.63;;;12.33;;
3149;SDS011;32503;47.748;8.960;2022-08-19T05:26:07;14.40;;;13.00;;
3149;SDS011;32503;47.748;8.960;2022-08-19T05:28:35;13.60;;;12.47;;
3149;SDS011;32503;47.748;8.960;2022-08-19T05:31:03;13.67;;;12.40;;
3149;SDS011;32503;47.748;8.960;2022-08-19T05:33:30;13.90;;;12.60;;
3149;SDS011;32503;47.748;8.960;2022-08-19T05:35:58;14.17;;;12.50;;
3149;SDS011;32503;47.748;8.960;2022-08-19T05:38:27;13.43;;;12.03;;
3149;SDS011;32503;47.748;8.960;2022-08-19T05:40:55;13.37;;;12.17;;
3149;SDS011;32503;47.748;8.960;2022-08-19T05:43:22;13.00;;;11.80;;
3149;SDS011;32503;47.748;8.960;2022-08-19T05:45:49;14.03;;;12.73;;
3149;SDS011;32503;47.748;8.960;2022-08-19T05:48:16;13.40;;;12.20;;
3149;SDS011;32503;47.748;8.960;2022-08-19T05:50:45;14.57;;;13.17;;
3149;SDS011;32503;47.748;8.960;2022-08-19T05:53:16;12.93;;;11.73;;
3149;SDS011;32503;47.748;8.960;2022-08-19T05:55:44;13.90;;;12.60;;
3149;SDS011;32503;47.748;8.960;2022-08-19T05:58:11;14.60;;;13.20;;
3149;SDS011;32503;47.748;8.960;2022-08-19T06:00:38;14.73;;;13.37;;
3149;SDS011;32503;47.748;8.960;2022-08-19T06:03:06;15.40;;;13.97;;
3149;SDS011;32503;47.748;8.960;2022-08-19T06:05:33;13.80;;;12.40;;
3149;SDS011;32503;47.748;8.960;2022-08-19T06:08:00;16.20;;;14.70;;
3149;SDS011;32503;47.748;8.960;2022-08-19T06:10:29;18.30;;;16.50;;
3149;SDS011;32503;47.748;8.960;2022-08-19T06:12:56;15.20;;;13.80;;
3149;SDS011;32503;47.748;8.960;2022-08-19T06:15:23;18.13;;;16.30;;
3149;SDS011;32503;47.748;8.960;2022-08-19T06:17:51;16.07;;;14.37;;
3149;SDS011;32503;47.748;8.960;2022-08-19T06:20:18;14.03;;;12.77;;
3149;SDS011;32503;47.748;8.960;2022-08-19T06:22:46;16.40;;;14.43;;
3149;SDS011;32503;47.748;8.960;2022-08-19T06:25:16;17.13;;;14.07;;
3149;SDS011;32503;47.748;8.960;2022-08-19T06:27:45;16.53;;;14.93;;
3149;SDS011;32503;47.748;8.960;2022-08-19T06:30:13;16.17;;;14.63;;
3149;SDS011;32503;47.748;8.960;2022-08-19T06:32:41;17.30;;;15.50;;
3149;SDS011;32503;47.748;8.960;2022-08-19T06:35:08;16.37;;;14.87;;
3149;SDS011;32503;47.748;8.960;2022-08-19T06:37:35;16.17;;;14.67;;
3149;SDS011;32503;47.748;8.960;2022-08-19T06:40:03;18.83;;;16.87;;
3149;SDS011;32503;47.748;8.960;2022-08-19T06:42:33;16.80;;;15.10;;
3149;SDS011;32503;47.748;8.960;2022-08-19T06:45:02;17.37;;;15.67;;
3149;SDS011;32503;47.748;8.960;2022-08-19T06:47:30;18.07;;;16.30;;
3149;SDS011;32503;47.748;8.960;2022-08-19T06:49:58;17.80;;;16.10;;
3149;SDS011;32503;47.748;8.960;2022-08-19T06:52:27;18.33;;;16.53;;
3149;SDS011;32503;47.748;8.960;2022-08-19T06:54:55;18.93;;;17.03;;
3149;SDS011;32503;47.748;8.960;2022-08-19T06:57:22;20.03;;;17.93;;
3149;SDS011;32503;47.748;8.960;2022-08-19T06:59:50;19.23;;;17.23;;
3149;SDS011;32503;47.748;8.960;2022-08-19T07:02:18;18.90;;;16.90;;
3149;SDS011;32503;47.748;8.960;2022-08-19T07:04:46;19.47;;;17.57;;
3149;SDS011;32503;47.748;8.960;2022-08-19T07:07:14;18.83;;;17.03;;
3149;SDS011;32503;47.748;8.960;2022-08-19T07:09:42;17.23;;;15.47;;
3149;SDS011;32503;47.748;8.960;2022-08-19T07:12:11;19.77;;;17.77;;
3149;SDS011;32503;47.748;8.960;2022-08-19T07:14:40;19.93;;;18.00;;
3149;SDS011;32503;47.748;8.960;2022-08-19T07:17:11;19.33;;;17.33;;
3149;SDS011;32503;47.748;8.960;2022-08-19T07:19:40;19.80;;;17.13;;
3149;SDS011;32503;47.748;8.960;2022-08-19T07:22:08;19.03;;;17.13;;
3149;SDS011;32503;47.748;8.960;2022-08-19T07:24:36;18.87;;;16.97;;
3149;SDS011;32503;47.748;8.960;2022-08-19T07:27:05;19.30;;;17.40;;
3149;SDS011;32503;47.748;8.960;2022-08-19T07:29:35;18.23;;;16.33;;
3149;SDS011;32503;47.748;8.960;2022-08-19T07:32:02;20.63;;;18.53;;
3149;SDS011;32503;47.748;8.960;2022-08-19T07:34:31;20.80;;;18.50;;
3149;SDS011;32503;47.748;8.960;2022-08-19T07:37:04;20.00;;;17.70;;
3149;SDS011;32503;47.748;8.960;2022-08-19T07:39:33;22.37;;;17.33;;
3149;SDS011;32503;47.748;8.960;2022-08-19T07:42:03;20.30;;;18.20;;
3149;SDS011;32503;47.748;8.960;2022-08-19T07:44:34;19.90;;;17.80;;
3149;SDS011;32503;47.748;8.960;2022-08-19T07:47:03;20.40;;;18.30;;
3149;SDS011;32503;47.748;8.960;2022-08-19T07:49:32;21.57;;;19.37;;
3149;SDS011;32503;47.748;8.960;2022-08-19T07:52:00;18.47;;;16.50;;
3149;SDS011;32503;47.748;8.960;2022-08-19T07:54:36;19.50;;;17.60;;
3149;SDS011;32503;47.748;8.960;2022-08-19T07:57:05;20.27;;;18.07;;
3149;SDS011;32503;47.748;8.960;2022-08-19T07:59:34;22.67;;;18.60;;
3149;SDS011;32503;47.748;8.960;2022-08-19T08:02:02;20.17;;;18.00;;
3149;SDS011;32503;47.748;8.960;2022-08-19T08:04:30;21.87;;;19.47;;
3149;SDS011;32503;47.748;8.960;2022-08-19T08:07:16;20.93;;;18.60;;
3149;SDS011;32503;47.748;8.960;2022-08-19T08:10:02;19.60;;;17.60;;
3149;SDS011;32503;47.748;8.960;2022-08-19T08:12:31;20.00;;;17.93;;
3149;SDS011;32503;47.748;8.960;2022-08-19T08:15:07;19.73;;;17.73;;
3149;SDS011;32503;47.748;8.960;2022-08-19T08:17:41;23.47;;;19.70;;
3149;SDS011;32503;47.748;8.960;2022-08-19T08:20:09;18.83;;;16.93;;
3149;SDS011;32503;47.748;8.960;2022-08-19T08:22:42;21.70;;;18.70;;
3149;SDS011;32503;47.748;8.960;2022-08-19T08:25:28;21.60;;;19.30;;
3149;SDS011;32503;47.748;8.960;2022-08-19T08:27:56;22.20;;;18.70;;
3149;SDS011;32503;47.748;8.960;2022-08-19T08:30:25;21.20;;;19.00;;
3149;SDS011;32503;47.748;8.960;2022-08-19T08:32:54;20.03;;;17.93;;
3149;SDS011;32503;47.748;8.960;2022-08-19T08:35:22;19.43;;;17.43;;
3149;SDS011;32503;47.748;8.960;2022-08-19T08:37:52;21.37;;;19.20;;
3149;SDS011;32503;47.748;8.960;2022-08-19T08:40:21;21.83;;;19.53;;
3149;SDS011;32503;47.748;8.960;2022-08-19T08:42:55;19.77;;;17.67;;
3149;SDS011;32503;47.748;8.960;2022-08-19T08:45:27;28.03;;;20.00;;
3149;SDS011;32503;47.748;8.960;2022-08-19T08:47:56;22.63;;;20.20;;
3149;SDS011;32503;47.748;8.960;2022-08-19T08:50:31;22.30;;;18.53;;
3149;SDS011;32503;47.748;8.960;2022-08-19T08:53:07;18.93;;;16.93;;
3149;SDS011;32503;47.748;8.960;2022-08-19T08:55:36;20.27;;;18.20;;
3149;SDS011;32503;47.748;8.960;2022-08-19T08:58:06;18.93;;;16.23;;
3149;SDS011;32503;47.748;8.960;2022-08-19T09:00:44;17.47;;;15.63;;
3149;SDS011;32503;47.748;8.960;2022-08-19T09:03:16;18.70;;;16.77;;
3149;SDS011;32503;47.748;8.960;2022-08-19T09:05:48;21.50;;;19.40;;
3149;SDS011;32503;47.748;8.960;2022-08-19T09:08:29;20.57;;;18.40;;
3149;SDS011;32503;47.748;8.960;2022-08-19T09:11:07;19.33;;;17.00;;
3149;SDS011;32503;47.748;8.960;2022-08-19T09:13:44;19.33;;;17.13;;
3149;SDS011;32503;47.748;8.960;2022-08-19T09:16:25;21.07;;;18.87;;
3149;SDS011;32503;47.748;8.960;2022-08-19T09:18:54;22.00;;;19.07;;
3149;SDS011;32503;47.748;8.960;2022-08-19T09:21:28;22.43;;;19.53;;
3149;SDS011;32503;47.748;8.960;2022-08-19T09:23:56;21.00;;;18.80;;
3149;SDS011;32503;47.748;8.960;2022-08-19T09:26:24;21.13;;;18.80;;
3149;SDS011;32503;47.748;8.960;2022-08-19T09:28:52;22.07;;;19.70;;
3149;SDS011;32503;47.748;8.960;2022-08-19T09:31:20;23.00;;;19.50;;
3149;SDS011;32503;47.748;8.960;2022-08-19T09:33:50;21.10;;;18.83;;
3149;SDS011;32503;47.748;8.960;2022-08-19T09:36:23;50.13;;;20.23;;
3149;SDS011;32503;47.748;8.960;2022-08-19T09:38:54;20.90;;;18.70;;
3149;SDS011;32503;47.748;8.960;2022-08-19T09:41:24;26.40;;;20.70;;
3149;SDS011;32503;47.748;8.960;2022-08-19T09:43:52;21.40;;;19.20;;
3149;SDS011;32503;47.748;8.960;2022-08-19T09:46:22;23.47;;;20.93;;
3149;SDS011;32503;47.748;8.960;2022-08-19T09:48:50;24.67;;;19.70;;
3149;SDS011;32503;47.748;8.960;2022-08-19T09:51:18;19.83;;;17.70;;
3149;SDS011;32503;47.748;8.960;2022-08-19T09:53:47;25.73;;;20.43;;
3149;SDS011;32503;47.748;8.960;2022-08-19T09:56:20;25.50;;;21.40;;
3149;SDS011;32503;47.748;8.960;2022-08-19T09:58:48;20.03;;;18.03;;
3149;SDS011;32503;47.748;8.960;2022-08-19T10:01:16;20.40;;;18.40;;
3149;SDS011;32503;47.748;8.960;2022-08-19T10:03:46;20.20;;;18.00;;
3149;SDS011;32503;47.748;8.960;2022-08-19T10:06:14;21.80;;;19.03;;
3149;SDS011;32503;47.748;8.960;2022-08-19T10:08:41;20.93;;;18.63;;
3149;SDS011;32503;47.748;8.960;2022-08-19T10:11:09;22.27;;;19.97;;
3149;SDS011;32503;47.748;8.960;2022-08-19T10:13:37;21.77;;;19.47;;
3149;SDS011;32503;47.748;8.960;2022-08-19T10:16:05;19.53;;;17.50;;
3149;SDS011;32503;47.748;8.960;2022-08-19T10:18:35;19.97;;;17.97;;
3149;SDS011;32503;47.748;8.960;2022-08-19T10:21:05;19.77;;;17.60;;
3149;SDS011;32503;47.748;8.960;2022-08-19T10:23:35;27.23;;;19.13;;
3149;SDS011;32503;47.748;8.960;2022-08-19T10:26:03;28.20;;;20.27;;
3149;SDS011;32503;47.748;8.960;2022-08-19T10:28:33;22.43;;;18.23;;
3149;SDS011;32503;47.748;8.960;2022-08-19T10:31:07;19.30;;;17.30;;
3149;SDS011;32503;47.748;8.960;2022-08-19T10:33:38;19.40;;;17.50;;
3149;SDS011;32503;47.748;8.960;2022-08-19T10:36:07;19.80;;;17.70;;
3149;SDS011;32503;47.748;8.960;2022-08-19T10:38:40;22.10;;;19.60;;
3149;SDS011;32503;47.748;8.960;2022-08-19T10:41:09;20.43;;;17.73;;
3149;SDS011;32503;47.748;8.960;2022-08-19T10:43:39;24.30;;;20.80;;
3149;SDS011;32503;47.748;8.960;2022-08-19T10:46:09;20.30;;;18.20;;
3149;SDS011;32503;47.748;8.960;2022-08-19T10:48:40;21.50;;;18.20;;
3149;SDS011;32503;47.748;8.960;2022-08-19T10:51:07;20.23;;;18.23;;
3149;SDS011;32503;47.748;8.960;2022-08-19T10:53:53;19.73;;;17.60;;
3149;SDS011;32503;47.748;8.960;2022-08-19T10:56:21;18.80;;;16.90;;
3149;SDS011;32503;47.748;8.960;2022-08-19T10:59:06;20.63;;;17.90;;
3149;SDS011;32503;47.748;8.960;2022-08-19T11:01:34;21.47;;;19.17;;
3149;SDS011;32503;47.748;8.960;2022-08-19T11:04:03;20.00;;;17.87;;
3149;SDS011;32503;47.748;8.960;2022-08-19T11:06:34;21.87;;;18.77;;
3149;SDS011;32503;47.748;8.960;2022-08-19T11:09:02;20.47;;;17.80;;
3149;SDS011;32503;47.748;8.960;2022-08-19T11:11:29;20.43;;;17.70;;
3149;SDS011;32503;47.748;8.960;2022-08-19T11:13:57;18.53;;;16.60;;
3149;SDS011;32503;47.748;8.960;2022-08-19T11:16:25;19.40;;;17.47;;
3149;SDS011;32503;47.748;8.960;2022-08-19T11:18:57;24.73;;;18.40;;
3149;SDS011;32503;47.748;8.960;2022-08-19T11:21:26;22.33;;;19.30;;
3149;SDS011;32503;47.748;8.960;2022-08-19T11:23:58;23.73;;;20.40;;
3149;SDS011;32503;47.748;8.960;2022-08-19T11:26:29;21.00;;;18.73;;
3149;SDS011;32503;47.748;8.960;2022-08-19T11:28:56;23.40;;;20.07;;
3149;SDS011;32503;47.748;8.960;2022-08-19T11:31:26;22.20;;;19.30;;
3149;SDS011;32503;47.748;8.960;2022-08-19T11:33:58;26.30;;;22.13;;
3149;SDS011;32503;47.748;8.960;2022-08-19T11:36:28;25.90;;;23.10;;
3149;SDS011;32503;47.748;8.960;2022-08-19T11:38:56;21.37;;;19.17;;
3149;SDS011;32503;47.748;8.960;2022-08-19T11:41:24;21.53;;;19.23;;
3149;SDS011;32503;47.748;8.960;2022-08-19T11:43:52;24.50;;;21.40;;
3149;SDS011;32503;47.748;8.960;2022-08-19T11:46:20;27.37;;;21.87;;
3149;SDS011;32503;47.748;8.960;2022-08-19T11:48:49;21.07;;;18.87;;
3149;SDS011;32503;47.748;8.960;2022-08-19T11:51:18;27.60;;;22.77;;
3149;SDS011;32503;47.748;8.960;2022-08-19T11:53:50;21.57;;;19.30;;
3149;SDS011;32503;47.748;8.960;2022-08-19T11:56:17;24.43;;;20.23;;
3149;SDS011;32503;47.748;8.960;2022-08-19T11:58:45;26.60;;;21.43;;
3149;SDS011;32503;47.748;8.960;2022-08-19T12:01:13;21.80;;;19.47;;
3149;SDS011;32503;47.748;8.960;2022-08-19T12:03:44;24.10;;;21.50;;
3149;SDS011;32503;47.748;8.960;2022-08-19T12:06:13;26.87;;;21.53;;
3149;SDS011;32503;47.748;8.960;2022-08-19T12:08:45;29.77;;;25.10;;
3149;SDS011;32503;47.748;8.960;2022-08-19T12:11:13;31.23;;;25.83;;
3149;SDS011;32503;47.748;8.960;2022-08-19T12:13:41;27.47;;;23.70;;
3149;SDS011;32503;47.748;8.960;2022-08-19T12:16:10;26.80;;;22.40;;
3149;SDS011;32503;47.748;8.960;2022-08-19T12:18:40;27.20;;;23.87;;
3149;SDS011;32503;47.748;8.960;2022-08-19T12:21:09;32.27;;;26.40;;
3149;SDS011;32503;47.748;8.960;2022-08-19T12:23:38;31.37;;;25.33;;
3149;SDS011;32503;47.748;8.960;2022-08-19T12:26:08;32.40;;;26.17;;
3149;SDS011;32503;47.748;8.960;2022-08-19T12:28:37;30.70;;;22.80;;
3149;SDS011;32503;47.748;8.960;2022-08-19T12:31:05;30.77;;;25.03;;
3149;SDS011;32503;47.748;8.960;2022-08-19T12:33:32;31.27;;;26.23;;
3149;SDS011;32503;47.748;8.960;2022-08-19T12:36:01;26.97;;;22.33;;
3149;SDS011;32503;47.748;8.960;2022-08-19T12:38:30;28.07;;;23.80;;
3149;SDS011;32503;47.748;8.960;2022-08-19T12:40:59;25.57;;;22.20;;
3149;SDS011;32503;47.748;8.960;2022-08-19T12:43:29;26.03;;;22.40;;
3149;SDS011;32503;47.748;8.960;2022-08-19T12:45:56;27.90;;;23.87;;
3149;SDS011;32503;47.748;8.960;2022-08-19T12:48:23;26.27;;;23.53;;
3149;SDS011;32503;47.748;8.960;2022-08-19T12:50:51;31.90;;;25.57;;
3149;SDS011;32503;47.748;8.960;2022-08-19T12:53:18;29.67;;;24.83;;
3149;SDS011;32503;47.748;8.960;2022-08-19T12:55:45;26.60;;;22.57;;
3149;SDS011;32503;47.748;8.960;2022-08-19T12:58:12;24.37;;;21.47;;
3149;SDS011;32503;47.748;8.960;2022-08-19T13:00:41;30.30;;;24.73;;
3149;SDS011;32503;47.748;8.960;2022-08-19T13:03:08;26.40;;;23.50;;
3149;SDS011;32503;47.748;8.960;2022-08-19T13:05:35;26.40;;;22.17;;
3149;SDS011;32503;47.748;8.960;2022-08-19T13:08:02;30.37;;;25.93;;
3149;SDS011;32503;47.748;8.960;2022-08-19T13:10:31;28.93;;;24.20;;
3149;SDS011;32503;47.748;8.960;2022-08-19T13:13:00;32.20;;;24.87;;
3149;SDS011;32503;47.748;8.960;2022-08-19T13:15:32;27.47;;;23.47;;
3149;SDS011;32503;47.748;8.960;2022-08-19T13:18:02;28.73;;;23.80;;
3149;SDS011;32503;47.748;8.960;2022-08-19T13:20:30;24.20;;;21.60;;
3149;SDS011;32503;47.748;8.960;2022-08-19T13:22:57;28.23;;;22.97;;
3149;SDS011;32503;47.748;8.960;2022-08-19T13:25:24;28.30;;;24.23;;
3149;SDS011;32503;47.748;8.960;2022-08-19T13:27:51;30.70;;;24.90;;
3149;SDS011;32503;47.748;8.960;2022-08-19T13:30:20;30.23;;;24.47;;
3149;SDS011;32503;47.748;8.960;2022-08-19T13:33:07;29.93;;;24.93;;
3149;SDS011;32503;47.748;8.960;2022-08-19T13:35:39;29.30;;;24.40;;
3149;SDS011;32503;47.748;8.960;2022-08-19T13:38:09;29.50;;;24.40;;
3149;SDS011;32503;47.748;8.960;2022-08-19T13:40:38;32.70;;;25.23;;
3149;SDS011;32503;47.748;8.960;2022-08-19T13:43:06;26.00;;;23.10;;
3149;SDS011;32503;47.748;8.960;2022-08-19T13:45:35;27.90;;;23.33;;
3149;SDS011;32503;47.748;8.960;2022-08-19T13:48:03;28.57;;;24.97;;
3149;SDS011;32503;47.748;8.960;2022-08-19T13:50:35;28.50;;;25.40;;
3149;SDS011;32503;47.748;8.960;2022-08-19T13:53:07;27.97;;;23.63;;
3149;SDS011;32503;47.748;8.960;2022-08-19T13:55:36;31.13;;;25.60;;
3149;SDS011;32503;47.748;8.960;2022-08-19T13:58:05;29.70;;;25.07;;
3149;SDS011;32503;47.748;8.960;2022-08-19T14:00:33;27.30;;;24.43;;
3149;SDS011;32503;47.748;8.960;2022-08-19T14:03:03;32.00;;;25.37;;
3149;SDS011;32503;47.748;8.960;2022-08-19T14:05:30;27.90;;;23.80;;
3149;SDS011;32503;47.748;8.960;2022-08-19T14:08:00;29.40;;;25.07;;
3149;SDS011;32503;47.748;8.960;2022-08-19T14:10:27;31.07;;;27.70;;
3149;SDS011;32503;47.748;8.960;2022-08-19T14:12:57;28.17;;;25.17;;
3149;SDS011;32503;47.748;8.960;2022-08-19T14:15:27;29.47;;;26.13;;
3149;SDS011;32503;47.748;8.960;2022-08-19T14:17:54;33.20;;;27.73;;
3149;SDS011;32503;47.748;8.960;2022-08-19T14:20:22;31.07;;;25.63;;
3149;SDS011;32503;47.748;8.960;2022-08-19T14:22:49;29.90;;;25.80;;
3149;SDS011;32503;47.748;8.960;2022-08-19T14:25:20;30.57;;;26.30;;
3149;SDS011;32503;47.748;8.960;2022-08-19T14:27:50;33.97;;;27.07;;
3149;SDS011;32503;47.748;8.960;2022-08-19T14:30:22;27.00;;;23.87;;
3149;SDS011;32503;47.748;8.960;2022-08-19T14:32:53;28.30;;;24.57;;
3149;SDS011;32503;47.748;8.960;2022-08-19T14:35:21;32.27;;;27.20;;
3149;SDS011;32503;47.748;8.960;2022-08-19T14:37:49;31.10;;;26.13;;
3149;SDS011;32503;47.748;8.960;2022-08-19T14:40:20;34.67;;;27.50;;
3149;SDS011;32503;47.748;8.960;2022-08-19T14:42:51;28.77;;;25.63;;
3149;SDS011;32503;47.748;8.960;2022-08-19T14:45:24;36.77;;;29.80;;
3149;SDS011;32503;47.748;8.960;2022-08-19T14:47:52;27.90;;;24.90;;
3149;SDS011;32503;47.748;8.960;2022-08-19T14:50:19;27.23;;;24.20;;